Flight Track Log - Related Links

Times and Time Zones

All times are in EDT time to prevent confusion due to time zone crossing. See the ASQ4301 flight status page for this flight to view local times or setup timezone preferences in your user account.

Time Position Orientation Groundspeed Altitude Reporting Facility
EDT Latitude Longitude Course Direction KTS MPH feet Rate Location/Type
Wed 10:09:57 PM 30.0006 -95.5633 41° Northeast 170 196 3,000  Level Houston Center
Wed 10:10:58 PM 29.9936 -95.5086 98° East 178 205 2,700 -559 Descending Houston Center
Wed 10:11:55 PM 29.9931 -95.4619 91° East 171 197 1,900 -814 Descending Houston Center
Wed 10:12:56 PM 29.9942 -95.4147 88° East 161 185 1,100 -689 Descending Houston Center
Wed 10:13:57 PM 29.9942 -95.3708 90° East 148 170 500 -590 Descending Houston Center
Wed 10:15:00 PM 30.4283 -94.9717 41° Northeast  Level FlightAware Approximate
Wed 10:16:00 PM 30.1271 -95.0986 32° Northeast  Level Estimated
Wed 10:23:00 PM 30.5916 -94.1317 33° Northeast  Level Estimated
Wed 10:24:00 PM 30.7182 -94.1905 338° Northwest  Level FlightAware Approximate
Wed 10:25:00 PM 30.7733 -94.0453 85° East  Level Estimated
Wed 10:26:00 PM 30.8281 -93.8999 90° East  Level Estimated
Wed 10:27:00 PM 30.8828 -93.7543 90° East  Level Estimated
Wed 10:28:00 PM 30.9374 -93.6086 90° East  Level Estimated
Wed 10:29:00 PM 31.0714 -93.6382 349° North  Level FlightAware Approximate
Wed 10:30:00 PM 31.1081 -93.4848 83° East  Level Estimated
Wed 10:31:00 PM 31.1446 -93.3313 90° East  Level Estimated
Wed 10:32:00 PM 31.2216 -93.2156 80° East  Level FlightAware Approximate
Wed 10:33:00 PM 31.2334 -93.0572 90° East  Level FlightAware Approximate
Wed 10:34:00 PM 31.2334 -92.8977 90° East  Level FlightAware Approximate
Wed 10:35:00 PM 31.2454 -92.7389 84° East  Level FlightAware Approximate
Wed 10:36:00 PM 31.2500 -92.5796 90° East  Level FlightAware Approximate
Wed 10:37:00 PM 31.3129 -92.5314 337° Northwest  Level FlightAware Approximate
Wed 10:38:00 PM 31.3167 -92.5333 337° Northwest  Level FlightAware Approximate
Wed 10:39:00 PM 31.3274 -92.5486 337° Northwest  Level Estimated
Wed 10:40:00 PM 31.3274 -92.5486 337° Northwest  Level Estimated
Wed 10:41:00 PM 31.3274 -92.5486 337° Northwest  Level Estimated
Wed 10:42:00 PM 31.3274 -92.5486 337° Northwest  Level Estimated
Wed 10:43:00 PM 31.3274 -92.5486 337° Northwest  Level Estimated
Wed 10:44:00 PM 31.3274 -92.5486 337° Northwest  Level Estimated

Login

Don't have an account? Register now (free) for customized features, flight alerts, and more!